Trenton, NJ

4:46 PM EDT on August 23, 2014 (GMT -0400)
South Jersey Regional | Change Station
CLOSE
Current Station
Airport
Location: Mount Holly,
Elevation: 52 ft
Nearby Weather Stations

Elev 52 ft 39.94 °N, 74.84 °W | Updated 52 minutes ago

Overcast
Overcast
70 °F
Feels Like 70 °F
N
7
Wind Variable Wind from Variable

Today
High -- | Low -- °F
--% Chance of Precip.
Yesterday
High -- | Low -- °F
Precip. -- in
6:17 AM 7:44 PM
Waning Crescent, 3% visible
Pressure 30.08 in
Visibility 10.0 miles
Clouds Few 2000 ft
Overcast 4100 ft
Dew Point 63 °F
Humidity 78%
Rainfall 0.01 in
Snow Depth Not available.
UV 2 out of 12
Pollen 6.50 out of 12
Ozone Good
PM2.5 Moderate
Flu Activity Not available.
METAR KVAY 231954Z AUTO VRB06KT 10SM FEW020 OVC041 21/17 A3008 RMK AO2 SLP185 T02110172

More Conditions Fewer Conditions

Pressure 30.08 in
Visibility 10.0 miles
Clouds Few 2000 ft
Overcast 4100 ft
Dew Point 63 °F
Humidity 78%
Rainfall 0.01 in
Snow Depth Not available.
UV 2 out of 12
Pollen 6.50 out of 12
Ozone Good
PM2.5 Moderate
Flu Activity Not available.
METAR KVAY 231954Z AUTO VRB06KT 10SM FEW020 OVC041 21/17 A3008 RMK AO2 SLP185 T02110172

More Conditions Fewer Conditions

Nowcast | as of 3:58 PM EDT on August 23, 2014

Through the rest of the afternoon widely scattered light showers will continue to move through the region. Showers north of the Pennsylvania Turnpike and Interstate 195 are moving toward the south. In the local Philadelphia area, the showers were falling from lower clouds and the general motion was light and variable. Between 4 PM and 530 PM additional rainfall amounts will average less than five hundredths of an inch. On a positive note, some breaks in the cloudiness were starting to occur in northern New Jersey.

×

10-Day Weather Forecast

Almanac

Astronomy

Aug. 23, 2014 Rise Set
Actual Time 6:17 AM EDT 7:44 PM EDT
Civil Twilight 5:49 AM EDT 8:13 PM EDT
Nautical Twilight 5:15 AM EDT 8:47 PM EDT
Astronomical Twilight 4:38 AM EDT 9:23 PM EDT
Moon 4:31 AM EDT 6:27 PM EDT
Length of Visible Light 14h 23m
Length of Day
13h 26m
Tomorrow will be 2m 28s shorter.
Waning Crescent, 3% of the Moon is Illuminated
Today
Waning Crescent
Aug 25
New
Sep 2
First Quarter
Sep 8
Full
Sep 15
Last Quarter

Today's Extremes

State Highs State Lows

Community

WunderPhotos

Upload Photos

1,746,622 photos uploaded!

WunderBlogs® & News

Nearby

Air Quality

  Air Quality AQ Index Pollutant
Yesterday Moderate
PM2.5
Yesterday Good
OZONE
Current Moderate
PM2.5
Current Good
OZONE
Saturday Good
OZONE
Saturday Good
PM2.5
Sunday Good
OZONE
Sunday Good
PM2.5
Monday Good
OZONE
Monday Good
PM2.5
Tuesday Good
OZONE
Tuesday Good
PM2.5

Snow Depth

Station Depth Elevation
No new snow has been reported.

Earthquake Activity

City Distance Mag. Time & Date
No recent earthquake activity has been reported nearby.
Minimum magnitude displayed is 2.5.

Coastal Water Temperatures

Place Temperature
No Stations Reporting

Nearby Weather Stations